Riverside Resolute — VHKQ — position and weather

sailwx.info

Track history (hours):
 
Tides and Currents Weather Stations Pressure Air Temp Water Temp Dewpoint Dewpoint Depression Visibility Wind Speed Wind Dir Waves Ship Positions

Riverside Resolute

Last reported at 2017-Nov-19 21:39 UTC. Time now 2017-Nov-20 23:11 UTC.
Position S 27°27' E 153°03'.

Length 78 m; draft 3.5 m.

Type: Ship. MMSI: 503032150.

Date/timePositionNaut miles runAvg speedWind from/ knotsBaromVisibWave heightAir tempDewpointWater temp
2017-Nov-19 21:39S 27°27' E 153°03'0 0.0
2017-Nov-19 21:09S 27°27' E 153°03'0 0.0
2017-Nov-19 20:51S 27°27' E 153°03'0 0.0
2017-Nov-18 20:51S 27°27' E 153°03'0 0.0
2017-Nov-18 20:27S 27°27' E 153°03'0 0.0
2017-Nov-18 09:49S 27°27' E 153°03'0 0.0
2017-Nov-18 09:19S 27°27' E 153°03'0 0.0
2017-Nov-18 08:52S 27°27' E 153°03'0 0.0
2017-Nov-18 07:49S 27°27' E 153°03'0 0.0
2017-Nov-18 06:43S 27°27' E 153°03'0 0.0
2017-Nov-18 06:25S 27°27' E 153°03'0 0.0
2017-Nov-17 20:01S 27°27' E 153°03'0 0.0
2017-Nov-17 19:58S 27°27' E 153°03'0 0.0
2017-Nov-17 19:07S 27°27' E 153°03'0 0.0
2017-Nov-16 21:45S 27°27' E 153°03'0 0.3
2017-Nov-16 21:16S 27°27' E 153°03'9 6.1
2017-Nov-16 19:44S 27°21' E 153°11'2 9.3
2017-Nov-16 19:28S 27°19' E 153°12'5 9.8
2017-Nov-16 18:57S 27°14' E 153°15'10 8.6
2017-Nov-16 17:48S 27°05' E 153°18'1 3.0
2017-Nov-16 17:31S 27°04' E 153°17'1 1.0
2017-Nov-16 16:55S 27°03' E 153°17'0 0.8
2017-Nov-16 16:30S 27°04' E 153°17'0 0.2
2017-Nov-16 16:00S 27°04' E 153°17'0 0.3
2017-Nov-16 15:30S 27°04' E 153°17'0 0.3
2017-Nov-16 15:01S 27°04' E 153°17'0 0.3
2017-Nov-16 14:30S 27°04' E 153°17'1 1.1
2017-Nov-16 14:01S 27°04' E 153°17'4 5.8
2017-Nov-16 13:21S 27°07' E 153°19'4 9.4
2017-Nov-16 12:55S 27°11' E 153°18'4 9.7
2017-Nov-16 12:31S 27°14' E 153°15'5 9.6
2017-Nov-16 11:59S 27°19' E 153°12'5 9.3
2017-Nov-16 11:28S 27°23' E 153°10'2 0.1
2017-Nov-15 07:08S 27°25' E 153°09'1 5.4
2017-Nov-15 07:00S 27°24' E 153°09'3 6.8
2017-Nov-15 06:31S 27°21' E 153°11'5 9.1
2017-Nov-15 05:57S 27°17' E 153°14'14 2.9
2017-Nov-15 01:16S 27°04' E 153°18'9 6.4
2017-Nov-14 23:53S 27°12' E 153°18'4 9.9
2017-Nov-14 23:31S 27°15' E 153°16'7 9.7
2017-Nov-14 22:49S 27°21' E 153°11'3 9.0
2017-Nov-14 22:28S 27°24' E 153°09'0 0.0
2017-Nov-14 05:43S 27°23' E 153°09'1 3.9
2017-Nov-14 05:23S 27°22' E 153°10'3 7.2
2017-Nov-14 04:59S 27°20' E 153°12'510.0
2017-Nov-14 04:30S 27°16' E 153°15'12 4.0
2017-Nov-14 01:31S 27°04' E 153°17'0 0.4
2017-Nov-14 01:30S 27°04' E 153°17'0 0.1
2017-Nov-14 00:49S 27°04' E 153°17'0 0.4
2017-Nov-13 23:47S 27°04' E 153°18'8 6.5
2017-Nov-13 22:33S 27°12' E 153°19'010.5
2017-Nov-13 22:30S 27°12' E 153°18'4 9.0
2017-Nov-13 22:00S 27°16' E 153°17'4 0.2
2017-Nov-12 22:22S 27°12' E 153°18'4 9.7
2017-Nov-12 22:00S 27°15' E 153°16'7 9.7
2017-Nov-12 21:18S 27°21' E 153°11'3 9.2
2017-Nov-12 20:57S 27°23' E 153°09'3 0.2
2017-Nov-12 04:11S 27°21' E 153°11'3 9.7
2017-Nov-12 03:53S 27°18' E 153°13'8 1.3
2017-Nov-11 21:41S 27°12' E 153°19'3 9.9
2017-Nov-11 21:22S 27°14' E 153°17'4 9.8
2017-Nov-11 20:57S 27°18' E 153°14'5 9.8
2017-Nov-11 20:29S 27°21' E 153°11'2 4.7
2017-Nov-11 19:58S 27°23' E 153°09'3 0.2
2017-Nov-11 03:12S 27°21' E 153°11'2 9.8
2017-Nov-11 02:59S 27°19' E 153°12'9 1.5
2017-Nov-10 20:47S 27°12' E 153°18'3 9.9
2017-Nov-10 20:29S 27°14' E 153°17'5 9.6
2017-Nov-10 20:00S 27°18' E 153°13'5 9.5
2017-Nov-10 19:30S 27°22' E 153°10'1 0.1
2017-Nov-10 01:51S 27°21' E 153°11'3 7.6
2017-Nov-10 01:24S 27°18' E 153°13'2 5.7
2017-Nov-10 01:00S 27°16' E 153°15'  
Track history (hours):
 
Tides and Currents Weather Stations Pressure Air Temp Water Temp Dewpoint Dewpoint Depression Visibility Wind Speed Wind Dir Waves Ship Positions

Riverside Resolute

Last reported at 2017-Nov-19 21:39 UTC. Time now 2017-Nov-20 23:11 UTC.
Position S 27°27' E 153°03'.

Length 78 m; draft 3.5 m.

Type: Ship. MMSI: 503032150.

Date/timePositionNaut miles runAvg speedWind from/ knotsBaromVisibWave heightAir tempDewpointWater temp
2017-Nov-19 21:39S 27°27' E 153°03'0 0.0
2017-Nov-19 21:09S 27°27' E 153°03'0 0.0
2017-Nov-19 20:51S 27°27' E 153°03'0 0.0
2017-Nov-18 20:51S 27°27' E 153°03'0 0.0
2017-Nov-18 20:27S 27°27' E 153°03'0 0.0
2017-Nov-18 09:49S 27°27' E 153°03'0 0.0
2017-Nov-18 09:19S 27°27' E 153°03'0 0.0
2017-Nov-18 08:52S 27°27' E 153°03'0 0.0
2017-Nov-18 07:49S 27°27' E 153°03'0 0.0
2017-Nov-18 06:43S 27°27' E 153°03'0 0.0
2017-Nov-18 06:25S 27°27' E 153°03'0 0.0
2017-Nov-17 20:01S 27°27' E 153°03'0 0.0
2017-Nov-17 19:58S 27°27' E 153°03'0 0.0
2017-Nov-17 19:07S 27°27' E 153°03'0 0.0
2017-Nov-16 21:45S 27°27' E 153°03'0 0.3
2017-Nov-16 21:16S 27°27' E 153°03'9 6.1
2017-Nov-16 19:44S 27°21' E 153°11'2 9.3
2017-Nov-16 19:28S 27°19' E 153°12'5 9.8
2017-Nov-16 18:57S 27°14' E 153°15'10 8.6
2017-Nov-16 17:48S 27°05' E 153°18'1 3.0
2017-Nov-16 17:31S 27°04' E 153°17'1 1.0
2017-Nov-16 16:55S 27°03' E 153°17'0 0.8
2017-Nov-16 16:30S 27°04' E 153°17'0 0.2
2017-Nov-16 16:00S 27°04' E 153°17'0 0.3
2017-Nov-16 15:30S 27°04' E 153°17'0 0.3
2017-Nov-16 15:01S 27°04' E 153°17'0 0.3
2017-Nov-16 14:30S 27°04' E 153°17'1 1.1
2017-Nov-16 14:01S 27°04' E 153°17'4 5.8
2017-Nov-16 13:21S 27°07' E 153°19'4 9.4
2017-Nov-16 12:55S 27°11' E 153°18'4 9.7
2017-Nov-16 12:31S 27°14' E 153°15'5 9.6
2017-Nov-16 11:59S 27°19' E 153°12'5 9.3
2017-Nov-16 11:28S 27°23' E 153°10'2 0.1
2017-Nov-15 07:08S 27°25' E 153°09'1 5.4
2017-Nov-15 07:00S 27°24' E 153°09'3 6.8
2017-Nov-15 06:31S 27°21' E 153°11'5 9.1
2017-Nov-15 05:57S 27°17' E 153°14'14 2.9
2017-Nov-15 01:16S 27°04' E 153°18'9 6.4
2017-Nov-14 23:53S 27°12' E 153°18'4 9.9
2017-Nov-14 23:31S 27°15' E 153°16'7 9.7
2017-Nov-14 22:49S 27°21' E 153°11'3 9.0
2017-Nov-14 22:28S 27°24' E 153°09'0 0.0
2017-Nov-14 05:43S 27°23' E 153°09'1 3.9
2017-Nov-14 05:23S 27°22' E 153°10'3 7.2
2017-Nov-14 04:59S 27°20' E 153°12'510.0
2017-Nov-14 04:30S 27°16' E 153°15'12 4.0
2017-Nov-14 01:31S 27°04' E 153°17'0 0.4
2017-Nov-14 01:30S 27°04' E 153°17'0 0.1
2017-Nov-14 00:49S 27°04' E 153°17'0 0.4
2017-Nov-13 23:47S 27°04' E 153°18'8 6.5
2017-Nov-13 22:33S 27°12' E 153°19'010.5
2017-Nov-13 22:30S 27°12' E 153°18'4 9.0
2017-Nov-13 22:00S 27°16' E 153°17'4 0.2
2017-Nov-12 22:22S 27°12' E 153°18'4 9.7
2017-Nov-12 22:00S 27°15' E 153°16'7 9.7
2017-Nov-12 21:18S 27°21' E 153°11'3 9.2
2017-Nov-12 20:57S 27°23' E 153°09'3 0.2
2017-Nov-12 04:11S 27°21' E 153°11'3 9.7
2017-Nov-12 03:53S 27°18' E 153°13'8 1.3
2017-Nov-11 21:41S 27°12' E 153°19'3 9.9
2017-Nov-11 21:22S 27°14' E 153°17'4 9.8
2017-Nov-11 20:57S 27°18' E 153°14'5 9.8
2017-Nov-11 20:29S 27°21' E 153°11'2 4.7
2017-Nov-11 19:58S 27°23' E 153°09'3 0.2
2017-Nov-11 03:12S 27°21' E 153°11'2 9.8
2017-Nov-11 02:59S 27°19' E 153°12'9 1.5
2017-Nov-10 20:47S 27°12' E 153°18'3 9.9
2017-Nov-10 20:29S 27°14' E 153°17'5 9.6
2017-Nov-10 20:00S 27°18' E 153°13'5 9.5
2017-Nov-10 19:30S 27°22' E 153°10'1 0.1
2017-Nov-10 01:51S 27°21' E 153°11'3 7.6
2017-Nov-10 01:24S 27°18' E 153°13'2 5.7
2017-Nov-10 01:00S 27°16' E 153°15'  

Dump ship's entire track history